createdAt,value
2022-12-01T00:01:37.645Z,46.81
2022-12-01T00:04:03.996Z,46.56
2022-12-01T00:06:30.260Z,46.62
2022-12-01T00:09:19.404Z,47.00
2022-12-01T00:11:46.316Z,46.86
2022-12-01T00:14:12.656Z,46.19
2022-12-01T00:16:40.399Z,46.60
2022-12-01T00:19:06.874Z,47.15
2022-12-01T00:21:33.149Z,46.71
2022-12-01T00:23:59.545Z,46.70
2022-12-01T00:26:26.060Z,46.71
2022-12-01T00:28:52.907Z,46.88
2022-12-01T00:31:19.473Z,47.15
2022-12-01T00:33:45.802Z,46.45
2022-12-01T00:36:12.081Z,46.75
2022-12-01T00:38:38.443Z,46.11
2022-12-01T00:41:04.787Z,46.56
2022-12-01T00:43:31.099Z,46.85
2022-12-01T00:45:57.491Z,46.80
2022-12-01T00:48:23.795Z,46.58
2022-12-01T00:50:50.370Z,46.49
2022-12-01T00:53:16.643Z,46.42
2022-12-01T00:55:42.918Z,47.07
2022-12-01T00:58:09.376Z,46.58
2022-12-01T01:00:38.593Z,46.30
2022-12-01T01:03:05.797Z,45.87
2022-12-01T01:05:35.192Z,45.66
2022-12-01T01:08:01.537Z,46.05
2022-12-01T01:10:27.964Z,46.21
2022-12-01T01:12:54.255Z,46.44
2022-12-01T01:15:20.516Z,46.74
2022-12-01T01:17:46.836Z,46.17
2022-12-01T01:20:13.324Z,46.19
2022-12-01T01:22:39.591Z,46.38
2022-12-01T01:25:06.078Z,46.79
2022-12-01T01:27:33.768Z,46.36
2022-12-01T01:30:00.049Z,46.74
2022-12-01T01:32:26.340Z,46.84
2022-12-01T01:34:52.623Z,46.96
2022-12-01T01:37:18.901Z,47.19
2022-12-01T01:39:45.584Z,47.12
2022-12-01T01:42:15.040Z,47.58
2022-12-01T01:44:49.045Z,48.01
2022-12-01T01:47:16.149Z,48.31
2022-12-01T01:49:42.436Z,47.55
2022-12-01T01:52:08.693Z,46.78
2022-12-01T01:54:35.995Z,47.61
2022-12-01T01:57:02.261Z,47.46
2022-12-01T01:59:29.785Z,47.21
2022-12-01T02:02:02.731Z,47.25
2022-12-01T02:04:29.057Z,47.14
2022-12-01T02:06:55.320Z,46.57
2022-12-01T02:09:21.584Z,46.46
2022-12-01T02:12:03.343Z,47.08
2022-12-01T02:14:33.756Z,48.56
2022-12-01T02:17:12.372Z,48.45
2022-12-01T02:19:42.021Z,48.61
2022-12-01T02:22:19.095Z,47.70
2022-12-01T02:24:50.186Z,47.82
2022-12-01T02:27:25.654Z,47.87
2022-12-01T02:29:51.889Z,48.07
2022-12-01T02:32:24.829Z,48.48
2022-12-01T02:35:06.414Z,48.64
2022-12-01T02:37:36.852Z,48.55
2022-12-01T02:40:05.950Z,48.02
2022-12-01T02:42:51.916Z,47.66
2022-12-01T02:45:20.977Z,47.79
2022-12-01T02:47:47.260Z,47.59
2022-12-01T02:50:13.529Z,46.72
2022-12-01T02:52:40.137Z,46.61
2022-12-01T02:55:06.494Z,46.52
2022-12-01T02:57:32.937Z,47.31
2022-12-01T02:59:59.316Z,46.93
2022-12-01T03:02:25.716Z,47.45
2022-12-01T03:04:56.935Z,48.06
2022-12-01T03:07:42.366Z,49.18
2022-12-01T03:10:12.838Z,49.13
2022-12-01T03:12:46.801Z,49.01
2022-12-01T03:15:31.010Z,48.25
2022-12-01T03:17:59.598Z,47.76
2022-12-01T03:20:32.801Z,48.05
2022-12-01T03:23:00.397Z,47.63
2022-12-01T03:25:26.658Z,47.60
2022-12-01T03:28:20.249Z,48.47
2022-12-01T03:30:42.633Z,48.02
2022-12-01T03:33:09.827Z,48.36
2022-12-01T03:35:41.761Z,48.42
2022-12-01T03:38:28.308Z,48.11
2022-12-01T03:40:58.233Z,48.18
2022-12-01T03:43:29.067Z,47.27
2022-12-01T03:45:56.782Z,47.69
2022-12-01T03:48:24.072Z,47.23
2022-12-01T03:51:14.017Z,46.45
2022-12-01T03:54:00.597Z,46.62
2022-12-01T03:56:27.639Z,46.90
2022-12-01T03:58:54.788Z,46.78
2022-12-01T04:01:22.274Z,46.32
2022-12-01T04:03:48.615Z,46.34
2022-12-01T04:06:14.901Z,46.47
2022-12-01T04:08:41.169Z,46.74
2022-12-01T04:11:32.411Z,47.64
2022-12-01T04:13:59.013Z,47.55
2022-12-01T04:16:25.317Z,47.82
2022-12-01T04:18:51.647Z,47.72
2022-12-01T04:21:17.925Z,46.64
2022-12-01T04:24:02.534Z,46.85
2022-12-01T04:26:29.373Z,46.18
2022-12-01T04:28:55.677Z,46.26
2022-12-01T04:31:22.112Z,46.08
2022-12-01T04:33:48.469Z,46.34
2022-12-01T04:36:14.800Z,47.31
2022-12-01T04:38:41.093Z,47.36
2022-12-01T04:41:10.599Z,47.25
2022-12-01T04:43:36.858Z,47.39
2022-12-01T04:46:03.495Z,47.61
2022-12-01T04:48:29.795Z,47.81
2022-12-01T04:50:56.067Z,48.51
2022-12-01T04:53:22.393Z,48.83
2022-12-01T04:55:48.682Z,47.93
2022-12-01T04:58:14.949Z,48.14
2022-12-01T05:00:41.297Z,48.01
2022-12-01T05:03:13.530Z,47.52
2022-12-01T05:05:41.275Z,47.22
2022-12-01T05:08:07.668Z,47.15
2022-12-01T05:10:37.080Z,47.78
2022-12-01T05:13:06.334Z,47.56
2022-12-01T05:15:32.632Z,47.00
2022-12-01T05:17:59.024Z,45.97
2022-12-01T05:20:44.032Z,46.90
2022-12-01T05:23:15.248Z,46.00
2022-12-01T05:25:43.169Z,47.35
2022-12-01T05:28:09.520Z,47.75
2022-12-01T05:30:35.955Z,47.17
2022-12-01T05:33:02.309Z,47.12
2022-12-01T05:35:28.635Z,46.73
2022-12-01T05:37:55.446Z,46.41
2022-12-01T05:40:21.720Z,46.41
2022-12-01T05:42:48.001Z,46.89
2022-12-01T05:45:14.381Z,48.26
2022-12-01T05:47:40.660Z,47.79
2022-12-01T05:50:07.358Z,47.33
2022-12-01T05:52:34.514Z,47.70
2022-12-01T05:55:01.240Z,47.57
2022-12-01T05:57:27.552Z,47.94
2022-12-01T05:59:53.832Z,48.29
2022-12-01T06:02:20.165Z,47.57
2022-12-01T06:04:46.688Z,48.27
2022-12-01T06:07:12.972Z,47.62
2022-12-01T06:09:39.234Z,47.61
2022-12-01T06:12:05.590Z,47.57
2022-12-01T06:14:31.843Z,47.57
2022-12-01T06:16:58.125Z,46.55
2022-12-01T06:19:24.512Z,46.07
2022-12-01T06:21:50.816Z,46.05
2022-12-01T06:24:17.120Z,45.66
2022-12-01T06:26:43.413Z,47.18
2022-12-01T06:29:10.594Z,46.48
2022-12-01T06:31:36.966Z,46.20
2022-12-01T06:34:03.305Z,47.24
2022-12-01T06:36:29.603Z,46.03
2022-12-01T06:38:55.884Z,46.51
2022-12-01T06:41:22.167Z,47.55
2022-12-01T06:43:48.460Z,46.80
2022-12-01T06:46:14.773Z,47.44
2022-12-01T06:48:41.055Z,46.38
2022-12-01T06:51:07.348Z,47.35
2022-12-01T06:53:33.641Z,47.08
2022-12-01T06:56:03.332Z,46.46
2022-12-01T06:58:29.970Z,48.17
2022-12-01T07:00:57.356Z,47.42
2022-12-01T07:03:23.777Z,48.00
2022-12-01T07:05:59.773Z,47.60
2022-12-01T07:08:26.641Z,48.29
2022-12-01T07:11:12.565Z,48.89
2022-12-01T07:13:39.204Z,47.53
2022-12-01T07:16:05.864Z,46.04
2022-12-01T07:18:32.309Z,45.68
2022-12-01T07:21:08.326Z,45.32
2022-12-01T07:23:34.725Z,45.00
2022-12-01T07:26:21.513Z,45.09
2022-12-01T07:28:47.834Z,45.64
2022-12-01T07:31:15.087Z,46.17
2022-12-01T07:33:41.483Z,45.60
2022-12-01T07:36:08.135Z,45.69
2022-12-01T07:38:34.419Z,46.48
2022-12-01T07:41:03.449Z,47.55
2022-12-01T07:43:30.835Z,47.99
2022-12-01T07:45:57.196Z,47.53
2022-12-01T07:48:23.510Z,47.84
2022-12-01T07:50:49.779Z,46.96
2022-12-01T07:53:16.080Z,47.00
2022-12-01T07:55:47.577Z,46.43
2022-12-01T07:58:13.845Z,44.88
2022-12-01T08:00:40.119Z,44.99
2022-12-01T08:03:06.456Z,44.96
2022-12-01T08:05:32.825Z,44.65
2022-12-01T08:07:59.241Z,45.01
2022-12-01T08:10:25.650Z,45.13
2022-12-01T08:12:51.945Z,44.48
2022-12-01T08:15:18.199Z,44.54
2022-12-01T08:17:44.480Z,45.18
2022-12-01T08:20:12.086Z,45.97
2022-12-01T08:22:38.357Z,45.30
2022-12-01T08:25:04.787Z,44.75
2022-12-01T08:27:31.061Z,45.57
2022-12-01T08:29:57.337Z,44.60
2022-12-01T08:32:23.712Z,45.18
2022-12-01T08:34:53.540Z,45.25
2022-12-01T08:37:20.243Z,44.04
2022-12-01T08:39:46.568Z,44.86
2022-12-01T08:42:13.111Z,44.17
2022-12-01T08:44:39.443Z,43.69
2022-12-01T08:47:05.777Z,44.02
2022-12-01T08:49:32.075Z,44.09
2022-12-01T08:51:58.355Z,46.64
2022-12-01T08:54:24.636Z,46.68
2022-12-01T08:56:50.964Z,45.90
2022-12-01T08:59:17.224Z,45.34
2022-12-01T09:01:52.553Z,45.68
2022-12-01T09:04:19.479Z,44.72
2022-12-01T09:06:46.155Z,42.94
2022-12-01T09:09:13.268Z,43.83
2022-12-01T09:11:39.920Z,43.52
2022-12-01T09:14:06.274Z,42.57
2022-12-01T09:16:32.574Z,42.66
2022-12-01T09:18:58.910Z,42.59
2022-12-01T09:21:26.130Z,44.90
2022-12-01T09:23:52.399Z,45.38
2022-12-01T09:26:19.455Z,45.51
2022-12-01T09:28:45.977Z,45.29
2022-12-01T09:31:12.498Z,44.95
2022-12-01T09:33:38.818Z,44.01
2022-12-01T09:36:05.568Z,43.25
2022-12-01T09:38:32.286Z,43.81
2022-12-01T09:40:59.514Z,43.70
2022-12-01T09:43:26.919Z,44.60
2022-12-01T09:46:03.879Z,45.70
2022-12-01T09:48:34.440Z,47.00
2022-12-01T09:51:00.717Z,47.67
2022-12-01T09:53:28.829Z,46.42
2022-12-01T09:56:00.644Z,46.70
2022-12-01T09:58:31.240Z,47.60
2022-12-01T10:00:57.547Z,49.00
2022-12-01T10:03:23.873Z,50.27
2022-12-01T10:06:26.123Z,50.36
2022-12-01T10:08:51.115Z,49.55
2022-12-01T10:11:24.811Z,50.30
2022-12-01T10:13:51.092Z,51.04
2022-12-01T10:16:18.691Z,51.54
2022-12-01T10:18:48.496Z,51.80
2022-12-01T10:21:20.989Z,51.37
2022-12-01T10:23:50.873Z,50.99
2022-12-01T10:26:20.231Z,50.45
2022-12-01T10:28:52.716Z,49.75
2022-12-01T10:31:20.195Z,49.38
2022-12-01T10:33:54.613Z,49.56
2022-12-01T10:36:21.181Z,48.29
2022-12-01T10:38:47.500Z,48.54
2022-12-01T10:41:14.148Z,48.87
2022-12-01T10:44:00.735Z,48.65
2022-12-01T10:46:33.843Z,47.48
2022-12-01T10:49:00.609Z,48.43
2022-12-01T10:51:27.224Z,47.88
2022-12-01T10:53:59.794Z,48.34
2022-12-01T10:56:26.092Z,48.66
2022-12-01T10:58:53.154Z,49.99
2022-12-01T11:01:23.741Z,46.64
2022-12-01T11:03:51.244Z,45.32
2022-12-01T11:06:20.773Z,44.23
2022-12-01T11:08:50.556Z,44.74
2022-12-01T11:11:23.013Z,45.11
2022-12-01T11:13:49.303Z,45.21
2022-12-01T11:16:33.228Z,44.46
2022-12-01T11:19:09.886Z,43.47
2022-12-01T11:21:36.235Z,43.17
2022-12-01T11:24:02.507Z,43.23
2022-12-01T11:26:31.788Z,43.10
2022-12-01T11:29:04.969Z,42.71
2022-12-01T11:31:37.632Z,43.27
2022-12-01T11:34:04.057Z,43.56
2022-12-01T11:36:33.355Z,42.42
2022-12-01T11:39:00.321Z,42.38
2022-12-01T11:41:30.857Z,43.12
2022-12-01T11:44:01.910Z,42.85
2022-12-01T11:46:30.804Z,41.62
2022-12-01T11:48:57.633Z,41.09
2022-12-01T11:51:23.870Z,41.38
2022-12-01T11:53:50.142Z,41.97
2022-12-01T11:56:28.582Z,42.49
2022-12-01T11:58:57.227Z,43.26
2022-12-01T12:01:23.464Z,43.70
2022-12-01T12:03:53.192Z,44.74
2022-12-01T12:09:19.010Z,43.95
2022-12-01T12:11:49.885Z,44.68
2022-12-01T12:14:19.285Z,44.26
2022-12-01T12:16:48.466Z,43.62
2022-12-01T12:19:25.387Z,43.80
2022-12-01T12:22:09.777Z,43.64
2022-12-01T12:24:39.205Z,44.16
2022-12-01T12:27:24.256Z,43.78
2022-12-01T12:30:09.464Z,43.64
2022-12-01T12:32:46.445Z,43.23
2022-12-01T12:35:31.465Z,43.28
2022-12-01T12:38:00.848Z,43.20
2022-12-01T12:40:27.463Z,42.72
2022-12-01T12:42:53.744Z,42.43
2022-12-01T12:45:25.922Z,42.93
2022-12-01T12:48:11.293Z,43.05
2022-12-01T12:51:00.569Z,42.17
2022-12-01T12:53:38.719Z,43.15
2022-12-01T12:56:05.600Z,42.27
2022-12-01T12:58:34.415Z,42.57
2022-12-01T13:01:01.694Z,42.82
2022-12-01T13:03:35.335Z,42.36
2022-12-01T13:06:01.557Z,42.46
2022-12-01T13:08:31.180Z,42.78
2022-12-01T13:10:58.948Z,43.04
2022-12-01T13:13:31.540Z,43.42
2022-12-01T13:15:58.119Z,44.05
2022-12-01T13:18:24.432Z,44.03
2022-12-01T13:20:50.703Z,44.00
2022-12-01T13:23:17.840Z,44.30
2022-12-01T13:25:44.161Z,44.22
2022-12-01T13:28:15.147Z,44.63
2022-12-01T13:30:41.426Z,44.54
2022-12-01T13:33:07.725Z,45.00
2022-12-01T13:35:35.073Z,45.38
2022-12-01T13:38:13.717Z,45.33
2022-12-01T13:40:40.024Z,45.43
2022-12-01T13:43:10.668Z,46.04
2022-12-01T13:45:37.396Z,45.92
2022-12-01T13:48:04.271Z,45.60
2022-12-01T13:50:43.550Z,45.83
2022-12-01T13:53:11.032Z,45.49
2022-12-01T13:55:52.318Z,46.15
2022-12-01T13:58:22.564Z,46.15
2022-12-01T14:00:50.809Z,45.59
2022-12-01T14:03:17.285Z,45.64
2022-12-01T14:05:53.090Z,45.53
2022-12-01T14:08:26.308Z,45.12
2022-12-01T14:10:52.618Z,45.22
2022-12-01T14:13:19.237Z,45.53
2022-12-01T14:15:45.709Z,45.40
2022-12-01T14:18:18.004Z,45.70
2022-12-01T14:20:45.417Z,45.48
2022-12-01T14:23:13.099Z,45.95
2022-12-01T14:25:39.406Z,45.10
2022-12-01T14:28:12.158Z,44.89
2022-12-01T14:30:38.400Z,45.50
2022-12-01T14:33:23.549Z,45.54
2022-12-01T14:35:49.841Z,45.09
2022-12-01T14:38:16.125Z,45.92
2022-12-01T14:40:42.404Z,46.69
2022-12-01T14:43:27.818Z,47.15
2022-12-01T14:45:56.282Z,46.29
2022-12-01T14:48:24.764Z,46.84
2022-12-01T14:50:53.186Z,47.19
2022-12-01T14:53:26.944Z,47.42
2022-12-01T14:55:57.760Z,47.86
2022-12-01T14:58:25.594Z,47.23
2022-12-01T15:00:56.516Z,47.36
2022-12-01T15:03:26.416Z,47.47
2022-12-01T15:05:55.278Z,47.42
2022-12-01T15:08:45.814Z,46.78
2022-12-01T15:11:21.973Z,47.25
2022-12-01T15:13:49.347Z,47.43
2022-12-01T15:16:16.625Z,47.43
2022-12-01T15:18:43.120Z,47.92
2022-12-01T15:21:19.783Z,47.58
2022-12-01T15:23:52.979Z,47.83
2022-12-01T15:26:19.400Z,47.33
2022-12-01T15:28:45.660Z,47.60
2022-12-01T15:31:12.374Z,47.84
2022-12-01T15:33:41.128Z,47.96
2022-12-01T15:36:07.635Z,47.48
2022-12-01T15:38:37.014Z,46.56
2022-12-01T15:41:28.488Z,46.75
2022-12-01T15:43:57.060Z,47.63
2022-12-01T15:46:26.979Z,48.05
2022-12-01T15:49:06.179Z,48.40
2022-12-01T15:51:32.452Z,48.50
2022-12-01T15:53:59.153Z,48.76
2022-12-01T15:56:32.795Z,49.15
2022-12-01T15:59:02.785Z,49.03
2022-12-01T16:01:29.435Z,49.16
2022-12-01T16:03:56.566Z,48.78
2022-12-01T16:06:28.740Z,47.59
2022-12-01T16:09:02.231Z,47.78
2022-12-01T16:11:28.609Z,47.20
2022-12-01T16:13:58.078Z,47.20
2022-12-01T16:16:40.479Z,46.90
2022-12-01T16:19:09.892Z,46.96
2022-12-01T16:21:43.738Z,46.81
2022-12-01T16:24:13.099Z,47.09
2022-12-01T16:26:45.537Z,47.58
2022-12-01T16:29:19.445Z,47.88
2022-12-01T16:32:12.746Z,48.09
2022-12-01T16:34:57.400Z,47.37
2022-12-01T16:37:18.281Z,47.17
2022-12-01T16:39:44.575Z,46.85
2022-12-01T16:42:11.715Z,46.85
2022-12-01T16:44:38.042Z,46.96
2022-12-01T16:47:09.322Z,47.12
2022-12-01T16:49:35.594Z,47.84
2022-12-01T16:52:16.015Z,48.21
2022-12-01T16:54:48.579Z,48.75
2022-12-01T16:57:16.953Z,48.69
2022-12-01T16:59:43.688Z,48.58
2022-12-01T17:02:10.368Z,48.35
2022-12-01T17:04:36.699Z,48.08
2022-12-01T17:07:03.264Z,47.75
2022-12-01T17:09:29.533Z,47.71
2022-12-01T17:11:59.311Z,46.92
2022-12-01T17:14:25.668Z,46.94
2022-12-01T17:16:51.953Z,47.56
2022-12-01T17:19:18.280Z,47.56
2022-12-01T17:21:44.559Z,47.01
2022-12-01T17:24:10.881Z,46.56
2022-12-01T17:26:37.185Z,46.42
2022-12-01T17:29:03.486Z,46.70
2022-12-01T17:31:29.878Z,46.59
2022-12-01T17:33:56.201Z,46.48
2022-12-01T17:36:22.507Z,46.99
2022-12-01T17:38:49.588Z,46.82
2022-12-01T17:41:18.136Z,46.73
2022-12-01T17:43:44.523Z,47.23
2022-12-01T17:46:11.350Z,46.53
2022-12-01T17:48:38.187Z,46.56
2022-12-01T17:51:04.548Z,46.92
2022-12-01T17:53:30.843Z,46.67
2022-12-01T17:55:57.129Z,46.98
2022-12-01T17:58:23.472Z,46.79
2022-12-01T18:00:50.422Z,47.08
2022-12-01T18:03:16.780Z,46.42
2022-12-01T18:05:43.083Z,46.79
2022-12-01T18:08:09.509Z,46.59
2022-12-01T18:10:35.965Z,46.08
2022-12-01T18:13:02.867Z,46.75
2022-12-01T18:15:33.248Z,46.15
2022-12-01T18:18:01.060Z,46.25
2022-12-01T18:20:27.352Z,46.53
2022-12-01T18:22:53.632Z,47.39
2022-12-01T18:25:19.909Z,47.42
2022-12-01T18:27:46.203Z,47.72
2022-12-01T18:30:12.857Z,47.52
2022-12-01T18:32:39.149Z,48.24
2022-12-01T18:35:05.599Z,46.77
2022-12-01T18:37:31.963Z,46.62
2022-12-01T18:39:58.243Z,46.57
2022-12-01T18:42:24.591Z,47.12
2022-12-01T18:44:51.324Z,46.72
2022-12-01T18:47:17.800Z,46.76
2022-12-01T18:49:44.119Z,46.86
2022-12-01T18:52:10.445Z,48.12
2022-12-01T18:54:36.759Z,47.33
2022-12-01T18:57:03.067Z,47.67
2022-12-01T18:59:29.401Z,47.43
2022-12-01T19:01:55.816Z,46.56
2022-12-01T19:04:22.223Z,46.80
2022-12-01T19:06:48.503Z,47.50
2022-12-01T19:09:15.591Z,48.08
2022-12-01T19:11:41.956Z,47.78
2022-12-01T19:14:09.472Z,48.27
2022-12-01T19:16:35.811Z,49.47
2022-12-01T19:19:02.144Z,49.42
2022-12-01T19:21:28.416Z,49.31
2022-12-01T19:23:54.695Z,49.81
2022-12-01T19:26:21.770Z,49.31
2022-12-01T19:28:48.259Z,49.38
2022-12-01T19:31:15.472Z,48.81
2022-12-01T19:33:41.855Z,48.53
2022-12-01T19:36:12.087Z,48.53
2022-12-01T19:38:38.521Z,48.44
2022-12-01T19:41:05.094Z,47.92
2022-12-01T19:43:32.946Z,48.53
2022-12-01T19:46:03.731Z,48.22
2022-12-01T19:48:30.048Z,48.47
2022-12-01T19:50:56.321Z,48.45
2022-12-01T19:53:22.629Z,48.59
2022-12-01T19:55:48.907Z,48.67
2022-12-01T19:58:15.186Z,48.89
2022-12-01T20:00:41.490Z,48.58
2022-12-01T20:03:07.785Z,49.44
2022-12-01T20:05:34.049Z,48.69
2022-12-01T20:08:01.300Z,49.11
2022-12-01T20:10:27.700Z,48.35
2022-12-01T20:12:54.084Z,48.70
2022-12-01T20:15:20.393Z,49.12
2022-12-01T20:17:46.677Z,49.63
2022-12-01T20:20:13.095Z,48.44
2022-12-01T20:22:39.528Z,49.32
2022-12-01T20:25:06.498Z,49.26
2022-12-01T20:27:32.773Z,49.55
2022-12-01T20:29:59.030Z,48.79
2022-12-01T20:32:25.345Z,49.80
2022-12-01T20:34:51.781Z,48.78
2022-12-01T20:37:18.233Z,48.29
2022-12-01T20:39:44.599Z,48.92
2022-12-01T20:42:11.267Z,49.52
2022-12-01T20:44:37.610Z,48.89
2022-12-01T20:47:03.926Z,48.67
2022-12-01T20:49:30.176Z,48.30
2022-12-01T20:51:56.452Z,47.62
2022-12-01T20:54:30.539Z,47.42
2022-12-01T20:56:57.111Z,47.14
2022-12-01T20:59:23.410Z,46.85
2022-12-01T21:01:49.684Z,47.23
2022-12-01T21:04:16.044Z,47.63
2022-12-01T21:06:42.396Z,47.92
2022-12-01T21:09:08.756Z,47.40
2022-12-01T21:11:55.121Z,48.11
2022-12-01T21:14:24.165Z,47.04
2022-12-01T21:16:50.471Z,46.64
2022-12-01T21:19:19.067Z,46.66
2022-12-01T21:21:45.376Z,46.68
2022-12-01T21:24:16.790Z,46.33
2022-12-01T21:26:47.025Z,46.01
2022-12-01T21:29:24.788Z,46.17
2022-12-01T21:31:51.828Z,45.58
2022-12-01T21:34:24.756Z,45.53
2022-12-01T21:36:52.641Z,45.60
2022-12-01T21:39:20.720Z,44.71
2022-12-01T21:41:50.521Z,45.27
2022-12-01T21:44:20.493Z,45.51
2022-12-01T21:46:47.706Z,45.09
2022-12-01T21:49:16.893Z,45.69
2022-12-01T21:51:43.183Z,46.11
2022-12-01T21:54:16.392Z,46.68
2022-12-01T21:56:42.652Z,46.56
2022-12-01T21:59:29.160Z,47.14
2022-12-01T22:01:56.071Z,46.36
2022-12-01T22:04:23.278Z,45.77
2022-12-01T22:06:51.291Z,45.79
2022-12-01T22:09:28.112Z,46.76
2022-12-01T22:11:55.074Z,46.68
2022-12-01T22:14:27.044Z,46.28
2022-12-01T22:16:53.252Z,46.32
2022-12-01T22:19:37.938Z,45.75
2022-12-01T22:22:18.209Z,43.44
2022-12-01T22:24:48.513Z,45.55
2022-12-01T22:27:33.627Z,46.63
2022-12-01T22:30:11.123Z,47.61
2022-12-01T22:32:53.087Z,47.43
2022-12-01T22:35:42.917Z,46.70
2022-12-01T22:38:12.682Z,46.26
2022-12-01T22:40:38.974Z,45.93
2022-12-01T22:43:14.506Z,45.53
2022-12-01T22:45:40.963Z,45.01
2022-12-01T22:48:13.577Z,44.91
2022-12-01T22:50:39.844Z,44.92
2022-12-01T22:53:09.292Z,45.51
2022-12-01T22:55:35.568Z,45.83
2022-12-01T22:58:05.581Z,45.58
2022-12-01T23:00:32.228Z,45.87
2022-12-01T23:02:58.563Z,44.63
2022-12-01T23:05:26.193Z,44.82
2022-12-01T23:07:53.034Z,45.36
2022-12-01T23:10:19.502Z,46.84
2022-12-01T23:12:46.557Z,46.40
2022-12-01T23:15:22.079Z,45.58
2022-12-01T23:17:48.726Z,44.79
2022-12-01T23:20:20.739Z,45.31
2022-12-01T23:22:47.323Z,44.75
2022-12-01T23:25:14.514Z,44.38
2022-12-01T23:27:40.869Z,44.84
2022-12-01T23:30:07.376Z,45.00
2022-12-01T23:32:33.660Z,45.60
2022-12-01T23:35:00.608Z,45.88
2022-12-01T23:37:32.324Z,45.51
2022-12-01T23:39:58.604Z,45.48
2022-12-01T23:42:24.866Z,44.49
2022-12-01T23:44:51.374Z,45.74
2022-12-01T23:47:24.671Z,46.47
2022-12-01T23:49:53.445Z,46.34
2022-12-01T23:52:19.940Z,46.62
2022-12-01T23:54:46.216Z,46.66
2022-12-01T23:57:15.475Z,46.60
2022-12-01T23:59:41.743Z,46.34
